Latest Weather Observations for Murrurundi Gap

IDN60801

Issued at 5:52 am EST Thursday 19 September 2019 (issued every 10 minutes, with the page automatically refreshed every 10 minutes)

About weather observations | Map of weather stations | Latest weather observations for NSW | Other Formats
Station Details ID: 061392 Name: MURRURUNDI GAP AWS Lat: -31.74 Lon: 150.79 Height: 729.4 m
Data from the previous 72 hours. | See also: Recent months at Murrurundi Gap
Date/Time
EST
Temp
°C
App
Temp
°C
Dew
Point
°C
Rel
Hum
%
Delta-T
°C
Wind Press
QNH
hPa
Press
MSL
hPa
Rain since
9am
mm
Dir  Spd
km/h
Gust
km/h
Spd
kts
Gust
kts
19/05:30am 9.7 6.1 9.7 100 0.0 SE 19 20 10 11 1025.3 1024.1 0.6
19/05:00am 9.8 5.6 9.8 100 0.0 SE 22 28 12 15 1024.9 1023.7 0.6
19/04:30am 10.0 5.1 10.0 100 0.0 SE 26 33 14 18 1024.4 1023.2 0.6
19/04:00am 10.2 5.7 10.2 100 0.0 SE 24 32 13 17 1024.3 1023.1 0.6
19/03:30am 10.2 4.6 10.2 100 0.0 SE 30 35 16 19 1023.9 1022.7 0.6
19/03:09am 10.3 5.5 10.3 100 0.0 SE 26 32 14 17 1023.9 1022.7 0.6
19/03:00am 10.2 5.7 10.2 100 0.0 SE 24 30 13 16 1023.9 1022.7 0.6
19/02:55am 10.2 5.7 10.2 100 0.0 ESE 24 32 13 17 1023.9 1022.7 0.6
19/02:30am 10.4 6.8 10.4 100 0.0 ESE 20 28 11 15 1023.8 1022.6 0.6
19/02:00am 10.8 5.8 10.8 100 0.0 SE 28 39 15 21 1023.7 1022.5 0.6
19/01:34am 10.9 4.2 10.9 100 0.0 SE 37 46 20 25 1023.4 1022.2 0.6
19/01:30am 10.9 3.8 10.9 100 0.0 SE 39 46 21 25 1023.4 1022.2 0.6
19/01:00am 11.1 4.8 11.1 100 0.0 ESE 35 43 19 23 1023.6 1022.4 0.6
19/12:30am 11.1 6.1 11.1 100 0.0 ESE 28 35 15 19 1023.9 1022.7 0.6
19/12:00am 11.2 7.0 11.2 100 0.0 SE 24 30 13 16 1024.1 1022.9 0.6
 
Date/Time
EST
Temp
°C
App
Temp
°C
Dew
Point
°C
Rel
Hum
%
Delta-T
°C
Wind Press
QNH
hPa
Press
MSL
hPa
Rain since
9am
mm
Dir  Spd
km/h
Gust
km/h
Spd
kts
Gust
kts
18/11:43pm 11.2 7.0 11.2 100 0.0 ESE 24 30 13 16 1024.0 1022.8 0.6
18/11:30pm 11.3 6.8 11.3 100 0.0 SE 26 32 14 17 1024.0 1022.8 0.6
18/11:02pm 11.4 7.3 11.4 100 0.0 SE 24 32 13 17 1024.1 1022.9 0.6
18/11:00pm 11.4 7.3 11.4 100 0.0 SE 24 32 13 17 1024.1 1022.9 0.6
18/10:30pm 11.3 6.4 11.3 100 0.0 SE 28 33 15 18 1024.1 1022.9 0.4
18/10:00pm 11.4 5.8 11.4 100 0.0 SE 32 35 17 19 1024.1 1022.9 0.4
18/09:57pm 11.4 6.1 11.4 100 0.0 SE 30 35 16 19 1024.1 1022.9 0.4
18/09:39pm 11.5 7.0 11.5 100 0.0 SE 26 33 14 18 1024.3 1023.1 0.4
18/09:30pm 11.4 6.5 11.4 100 0.0 SE 28 35 15 19 1024.3 1023.1 0.4
18/09:14pm 11.4 6.5 11.4 100 0.0 SE 28 39 15 21 1024.2 1023.0 0.4
18/09:00pm 11.4 5.8 11.4 100 0.0 SE 32 44 17 24 1024.0 1022.8 0.4
18/08:30pm 11.4 5.8 11.4 100 0.0 SE 32 39 17 21 1024.1 1022.9 0.4
18/08:00pm 11.4 6.1 11.4 100 0.0 SE 30 39 16 21 1024.1 1022.9 0.4
18/07:42pm 11.4 6.5 11.4 100 0.0 SE 28 37 15 20 1024.0 1022.8 0.4
18/07:30pm 11.5 6.7 11.5 100 0.0 SE 28 35 15 19 1024.0 1022.8 0.4
18/07:00pm 11.5 6.3 11.5 100 0.0 SE 30 39 16 21 1023.8 1022.6 0.4
18/06:30pm 11.5 6.3 11.5 100 0.0 SE 30 37 16 20 1023.6 1022.4 0.4
18/06:16pm 11.6 6.8 11.6 100 0.0 SSE 28 39 15 21 1023.5 1022.3 0.4
18/06:07pm 11.7 6.9 11.5 99 0.1 SE 28 39 15 21 1023.5 1022.3 0.4
18/06:00pm 11.8 8.2 11.8 100 0.0 SE 22 32 12 17 1023.6 1022.4 0.4
18/05:45pm 11.8 6.3 11.8 100 0.0 SE 32 41 17 22 1023.5 1022.3 0.4
18/05:31pm 11.9 6.4 11.7 99 0.1 SE 32 41 17 22 1023.1 1021.8 0.4
18/05:30pm 11.9 6.7 11.7 99 0.1 SE 30 41 16 22 1023.2 1021.9 0.4
18/05:02pm 11.9 6.2 11.7 99 0.1 SE 33 39 18 21 1023.1 1021.8 0.4
18/05:00pm 12.0 6.5 11.8 99 0.1 SE 32 39 17 21 1023.1 1021.8 0.4
18/04:30pm 12.0 7.6 11.8 99 0.1 SSE 26 39 14 21 1022.7 1021.5 0.4
18/04:26pm 12.0 7.6 11.8 99 0.1 SSE 26 39 14 21 1022.7 1021.5 0.4
18/04:00pm 11.8 5.7 11.8 100 0.0 SE 35 44 19 24 1022.3 1021.1 0.4
18/03:55pm 11.8 5.7 11.8 100 0.0 SE 35 44 19 24 1022.2 1021.0 0.4
18/03:37pm 12.0 6.4 12.0 100 0.0 SE 33 43 18 23 1022.0 1020.7 0.4
18/03:30pm 12.0 6.4 12.0 100 0.0 SE 33 43 18 23 1022.0 1020.7 0.4
18/03:00pm 11.4 7.3 11.4 100 0.0 SSE 24 32 13 17 1022.3 1021.1 0.4
18/02:30pm 11.4 7.7 11.4 100 0.0 SSE 22 30 12 16 1022.3 1021.1 0.4
18/02:00pm 11.1 7.9 11.1 100 0.0 SSE 19 26 10 14 1022.3 1021.1 0.4
18/01:30pm 10.9 7.6 10.9 100 0.0 SE 19 30 10 16 1022.0 1020.7 0.4
18/01:02pm 11.0 6.8 11.0 100 0.0 SSE 24 33 13 18 1022.0 1020.7 0.4
18/01:00pm 10.9 7.0 10.9 100 0.0 SSE 22 33 12 18 1021.9 1020.6 0.4
18/12:32pm 11.0 7.7 11.0 100 0.0 SSE 19 26 10 14 1022.0 1020.7 0.4
18/12:30pm 10.8 7.5 10.8 100 0.0 SSE 19 24 10 13 1022.0 1020.7 0.4
18/12:00pm 10.1 6.9 10.1 100 0.0 SSE 17 24 9 13 1022.4 1021.2 0.4
18/11:30am 10.2 6.5 10.2 100 0.0 SSE 20 30 11 16 1022.4 1021.2 0.4
18/11:00am 9.7 5.5 9.7 100 0.0 SE 22 33 12 18 1022.5 1021.3 0.0
18/10:30am 9.5 4.5 9.5 100 0.0 SE 26 37 14 20 1022.5 1021.3 0.0
18/10:00am 9.4 4.4 9.4 100 0.0 SE 26 37 14 20 1022.8 1021.6 0.0
18/09:50am 9.4 3.2 9.4 100 0.0 SE 32 43 17 23 1022.7 1021.5 0.0
18/09:30am 9.5 3.7 9.5 100 0.0 SE 30 41 16 22 1022.4 1021.2 0.0
18/09:00am 9.2 3.7 9.2 100 0.0 SE 28 41 15 22 1022.3 1021.1 7.6
18/08:58am 9.1 3.6 9.1 100 0.0 SE 28 41 15 22 1022.3 1021.1 7.6
18/08:30am 9.0 3.8 9.0 100 0.0 SSE 26 39 14 21 1022.2 1021.0 7.6
18/08:27am 8.9 3.7 8.9 100 0.0 SE 26 35 14 19 1022.1 1020.9 7.6
18/08:04am 8.8 2.8 8.8 100 0.0 SE 30 43 16 23 1022.1 1020.9 7.6
18/08:00am 8.8 3.2 8.8 100 0.0 SE 28 41 15 22 1022.0 1020.7 7.6
18/07:30am 8.7 1.0 8.7 100 0.0 SE 39 57 21 31 1021.0 1019.8 7.6
18/07:21am 8.7 1.0 8.7 100 0.0 SE 39 57 21 31 1020.5 1019.2 7.6
18/07:02am 8.6 -0.1 8.6 100 0.0 SE 44 63 24 34 1020.0 1018.8 7.6
18/07:00am 8.6 -0.5 8.6 100 0.0 SE 46 63 25 34 1019.9 1018.7 7.6
18/06:59am 8.6 -0.1 8.6 100 0.0 SE 44 63 24 34 1019.9 1018.7 7.6
18/06:34am 8.5 -0.2 8.5 100 0.0 SE 44 65 24 35 1019.3 1018.0 7.4
18/06:30am 8.4 -0.1 8.4 100 0.0 SE 43 57 23 31 1019.2 1017.9 7.4
18/06:00am 8.5 0.8 8.5 100 0.0 SE 39 61 21 33 1019.0 1017.7 7.2
18/05:55am 8.4 0.6 8.4 100 0.0 SE 39 57 21 31 1019.1 1017.8 7.2
18/05:30am 8.5 1.1 8.5 100 0.0 SE 37 52 20 28 1018.8 1017.5 7.2
18/05:09am 8.6 1.6 8.6 100 0.0 SE 35 54 19 29 1018.5 1017.3 7.0
18/05:00am 8.5 1.1 8.5 100 0.0 SE 37 48 20 26 1018.4 1017.1 7.0
18/04:30am 8.5 2.1 8.5 100 0.0 SE 32 50 17 27 1018.7 1017.4 6.8
18/04:24am 8.5 2.5 8.5 100 0.0 SE 30 50 16 27 1018.5 1017.3 6.8
18/04:00am 8.4 2.0 8.4 100 0.0 SE 32 43 17 23 1018.8 1017.5 6.6
18/03:30am 8.6 2.6 8.6 100 0.0 SE 30 50 16 27 1018.9 1017.6 6.2
18/03:24am 8.7 3.1 8.7 100 0.0 SE 28 50 15 27 1019.0 1017.7 6.2
18/03:00am 8.8 3.2 8.8 100 0.0 SE 28 44 15 24 1019.1 1017.8 5.6
18/02:41am 8.8 2.8 8.8 100 0.0 SE 30 48 16 26 1019.2 1017.9 5.4
18/02:30am 8.9 3.3 8.9 100 0.0 SE 28 37 15 20 1019.5 1018.2 5.4
18/02:00am 9.1 1.1 9.1 100 0.0 SE 41 61 22 33 1019.2 1017.9 5.0
18/01:55am 9.1 1.5 9.1 100 0.0 SE 39 61 21 33 1019.0 1017.7 5.0
18/01:30am 9.0 2.1 9.0 100 0.0 SE 35 50 19 27 1019.4 1018.1 4.8
18/01:00am 8.8 2.3 8.8 100 0.0 SE 33 46 18 25 1019.9 1018.7 4.4
18/12:30am 8.6 2.0 8.6 100 0.0 SE 33 46 18 25 1019.8 1018.6 4.2
18/12:00am 8.3 1.6 8.3 100 0.0 SE 33 43 18 23 1019.9 1018.7 4.0
 
Date/Time
EST
Temp
°C
App
Temp
°C
Dew
Point
°C
Rel
Hum
%
Delta-T
°C
Wind Press
QNH
hPa
Press
MSL
hPa
Rain since
9am
mm
Dir  Spd
km/h
Gust
km/h
Spd
kts
Gust
kts
17/11:30pm 8.3 0.5 8.3 100 0.0 ESE 39 50 21 27 1019.8 1018.6 3.6
17/11:00pm 8.0 0.1 8.0 100 0.0 ESE 39 50 21 27 1019.8 1018.6 3.0
17/10:30pm 8.0 0.1 8.0 100 0.0 ESE 39 50 21 27 1019.7 1018.5 2.8
17/10:00pm 7.7 0.9 7.7 100 0.0 SE 33 44 18 24 1019.8 1018.6 2.8
17/09:30pm 7.6 0.8 7.6 100 0.0 SE 33 44 18 24 1019.8 1018.6 2.6
17/09:00pm 7.5 -0.1 7.5 100 0.0 SE 37 46 20 25 1019.7 1018.5 2.4
17/08:30pm 7.3 0.0 7.3 100 0.0 SE 35 44 19 24 1019.4 1018.1 2.2
17/08:00pm 6.9 -0.5 6.8 99 0.0 SE 35 43 19 23 1019.1 1017.8 2.2
17/07:46pm 7.0 0.2 6.9 99 0.0 SE 32 41 17 22 1019.2 1017.9 1.8
17/07:30pm 6.9 0.1 6.8 99 0.0 SE 32 39 17 21 1019.3 1018.0 1.6
17/07:00pm 6.8 -0.6 6.7 99 0.0 SE 35 46 19 25 1019.1 1017.8 1.6
17/06:30pm 6.8 -1.0 6.7 99 0.0 SE 37 46 20 25 1018.9 1017.6 1.2
17/06:00pm 6.8 -1.8 6.5 98 0.1 SE 41 46 22 25 1018.9 1017.6 1.2
17/05:30pm 7.0 0.9 6.6 97 0.2 SE 28 35 15 19 1019.3 1018.0 1.2
17/05:00pm 7.2 0.7 6.5 95 0.3 SE 30 37 16 20 1019.4 1018.1 1.2
17/04:58pm 7.2 1.1 6.5 95 0.3 SE 28 37 15 20 1019.4 1018.1 1.2
17/04:30pm 7.6 2.1 5.7 88 0.9 SE 24 32 13 17 1019.5 1018.2 1.0
17/04:00pm 7.6 1.9 6.5 93 0.5 SE 26 33 14 18 1019.3 1018.0 1.0
17/03:30pm 7.2 0.9 5.8 91 0.7 ESE 28 41 15 22 1019.1 1017.8 0.8
17/03:00pm 7.3 2.2 6.1 92 0.6 SE 22 33 12 18 1019.1 1017.8 0.8
17/02:30pm 6.6 0.5 6.5 99 0.0 ESE 28 37 15 20 1018.8 1017.5 0.8
17/02:01pm 6.5 2.4 6.2 98 0.1 SE 17 32 9 17 1019.1 1017.8 0.6
17/02:00pm 6.6 2.5 6.3 98 0.1 SE 17 30 9 16 1019.1 1017.8 0.6
17/01:51pm 6.8 3.1 6.4 97 0.2 SSW 15 30 8 16 1020.0 1018.8 0.0
17/01:46pm 6.6 0.4 6.2 97 0.2 SE 28 56 15 30 1019.7 1018.5 0.0
17/01:40pm 6.6 -2.5 5.9 95 0.3 SE 43 61 23 33 1018.2 1016.9 0.0
17/01:30pm 6.7 -2.6 5.7 93 0.5 SE 44 61 24 33 1017.0 1015.7 0.0
17/01:09pm 6.8 -2.0 5.6 92 0.6 SE 41 61 22 33 1017.0 1015.7 0.0
17/01:00pm 7.0 -1.7 6.1 94 0.4 SE 41 57 22 31 1017.1 1015.8 0.0
17/12:53pm 7.1 -0.8 6.4 95 0.3 SE 37 56 20 30 1017.0 1015.7 0.0
17/12:49pm 7.1 -0.7 6.5 96 0.3 SE 37 54 20 29 1017.5 1016.2 0.0
17/12:42pm 7.1 -1.4 7.0 99 0.0 SE 41 54 22 29 1017.3 1015.9 0.0
17/12:30pm 6.8 -1.8 6.7 99 0.0 SE 41 57 22 31 1017.9 1016.6 0.0
17/12:05pm 6.3 -2.0 6.2 99 0.0 SE 39 57 21 31 1017.4 1016.1 0.0
17/12:00pm 6.3 -2.0 6.2 99 0.0 SE 39 56 21 30 1017.6 1016.3 0.0
17/11:32am 6.6 -0.9 6.5 99 0.0 SE 35 54 19 29 1017.4 1016.1 0.0
17/11:30am 6.5 -1.4 6.4 99 0.0 SE 37 54 20 29 1017.3 1015.9 0.0
17/11:00am 6.5 -2.5 6.4 99 0.0 SSE 43 61 23 33 1016.6 1015.3 0.0
17/10:55am 6.5 -2.5 6.4 99 0.0 SSE 43 61 23 33 1016.7 1015.4 0.0
17/10:30am 7.0 -1.9 6.9 99 0.0 SSE 43 59 23 32 1016.7 1015.4 0.0
17/10:08am 7.7 -0.3 7.6 99 0.0 SSE 39 57 21 31 1016.9 1015.6 0.0
17/10:00am 8.0 0.1 7.9 99 0.0 SSE 39 56 21 30 1017.0 1015.7 0.0
17/09:51am 8.4 1.0 8.3 99 0.1 SSE 37 56 20 30 1017.1 1015.8 0.0
17/09:30am 9.1 2.2 9.0 99 0.1 SSE 35 48 19 26 1017.1 1015.8 0.0
17/09:21am 9.3 2.5 9.2 99 0.1 SSE 35 48 19 26 1016.8 1015.5 0.0
17/09:00am 9.6 2.5 9.5 99 0.1 SSE 37 50 20 27 1016.9 1015.6 0.0
17/08:30am 10.2 4.1 9.9 98 0.2 SE 32 43 17 23 1017.1 1015.8 0.0
17/08:00am 10.0 3.0 9.9 99 0.1 SE 37 46 20 25 1016.5 1015.2 0.0
17/07:36am 9.9 3.2 9.8 99 0.1 SSE 35 46 19 25 1016.9 1015.6 0.0
17/07:30am 9.8 2.7 9.7 99 0.1 SSE 37 46 20 25 1017.0 1015.7 0.0
17/07:00am 9.6 2.5 9.5 99 0.1 SSE 37 46 20 25 1017.3 1015.9 0.0
17/06:38am 10.2 4.2 10.1 99 0.1 SE 32 41 17 22 1017.7 1016.4 0.0
17/06:31am 10.6 4.6 10.1 97 0.3 SE 32 39 17 21 1017.9 1016.6 0.0
17/06:30am 10.6 4.6 10.1 97 0.3 SE 32 39 17 21 1017.9 1016.6 0.0
17/06:22am 10.9 4.9 10.0 94 0.5 SE 32 39 17 21 1017.8 1016.5 0.0
17/06:11am 11.0 5.0 10.1 94 0.5 SE 32 39 17 21 1017.7 1016.4 0.0
17/06:00am 10.9 5.6 10.0 94 0.5 ESE 28 35 15 19 1017.7 1016.4 0.0
17/05:30am 10.7 5.1 10.2 97 0.3 SE 30 39 16 21 1017.5 1016.2 0.0
17/05:00am 10.8 4.6 10.0 95 0.4 SE 33 43 18 23 1016.8 1015.5 0.0
17/04:30am 11.1 3.8 10.2 94 0.5 SE 39 48 21 26 1016.6 1015.3 0.0
17/04:04am 10.6 3.3 10.3 98 0.2 SE 39 46 21 25 1016.5 1015.2 0.0
17/04:00am 10.6 3.3 10.3 98 0.2 SE 39 46 21 25 1016.6 1015.3 0.0
17/03:30am 10.6 2.9 10.1 97 0.3 SE 41 48 22 26 1016.5 1015.2 0.0
17/03:00am 10.6 3.6 10.1 97 0.3 SE 37 46 20 25 1016.8 1015.5 0.0
17/02:30am 10.7 4.1 10.1 96 0.3 SE 35 46 19 25 1017.4 1016.1 0.0
17/02:00am 10.6 3.6 10.0 96 0.3 SE 37 46 20 25 1017.0 1015.7 0.0
17/01:30am 10.7 4.5 9.9 95 0.4 SE 33 43 18 23 1017.1 1015.8 0.0
17/01:04am 10.8 4.2 10.0 95 0.4 SE 35 43 19 23 1017.6 1016.3 0.0
17/01:00am 10.8 4.2 10.0 95 0.4 SE 35 44 19 24 1017.6 1016.3 0.0
17/12:30am 10.9 3.5 10.0 94 0.5 SE 39 48 21 26 1017.5 1016.2 0.0
17/12:00am 11.2 3.1 10.0 92 0.6 SSE 43 56 23 30 1017.1 1015.8 0.0
 
Date/Time
EST
Temp
°C
App
Temp
°C
Dew
Point
°C
Rel
Hum
%
Delta-T
°C
Wind Press
QNH
hPa
Press
MSL
hPa
Rain since
9am
mm
Dir  Spd
km/h
Gust
km/h
Spd
kts
Gust
kts
16/11:30pm 11.9 4.8 9.6 86 1.2 SSE 37 46 20 25 1017.6 1016.3 0.0
16/11:00pm 12.9 6.0 8.8 76 2.1 SSE 35 48 19 26 1017.5 1016.2 0.0
16/10:30pm 14.1 8.6 7.6 65 3.3 ESE 26 35 14 19 1018.1 1016.8 0.0
16/10:10pm 16.0 8.1 4.4 46 5.6 S 35 54 19 29 1017.8 1016.5 0.0
16/10:00pm 14.7 7.7 7.0 60 3.9 SSE 33 44 18 24 1018.1 1016.8 0.0
16/09:30pm 17.2 10.5 1.6 35 7.2 S 26 37 14 20 1017.6 1016.3 0.0
16/09:21pm 19.1 13.3 -5.0 19 9.9 SW 17 37 9 20 1017.4 1016.1 0.0
16/09:00pm 20.6 16.8 -9.8 12 11.6 S 4 9 2 5 1017.6 1016.3 0.0
16/08:30pm 21.0 15.8 -10.5 11 11.9 NNW 11 15 6 8 1017.9 1016.6 0.0
16/08:00pm 20.6 15.9 -8.7 13 11.4 WNW 9 11 5 6 1018.0 1016.7 0.0
16/07:30pm 20.7 16.4 -8.7 13 11.4 W 7 11 4 6 1018.0 1016.7 0.0
16/07:00pm 20.7 15.3 -8.7 13 11.4 W 13 17 7 9 1017.9 1016.6 0.0
16/06:30pm 21.5 15.4 -8.0 13 11.7 NW 17 20 9 11 1017.4 1016.1 0.0
16/06:00pm 22.1 15.4 -8.6 12 12.1 NNW 20 24 11 13 1017.1 1015.8 0.0
16/05:30pm 22.4 14.9 -8.4 12 12.3 NW 24 30 13 16 1016.8 1015.5 0.0
16/05:00pm 22.8 15.0 -8.1 12 12.4 NW 26 33 14 18 1016.7 1015.4 0.0
16/04:30pm 23.0 15.1 -9.0 11 12.7 NNW 26 37 14 20 1016.5 1015.2 0.0
16/04:00pm 23.8 14.7 -9.6 10 13.2 NW 32 46 17 25 1016.5 1015.2 0.0
16/03:30pm 24.1 14.9 -10.7 9 13.5 NW 32 43 17 23 1016.7 1015.4 0.0
16/03:00pm 23.2 13.9 -12.8 8 13.3 NW 32 41 17 22 1016.9 1015.6 0.0
16/02:30pm 23.9 15.3 -14.0 7 13.8 NW 28 39 15 21 1017.1 1015.8 0.0
16/02:23pm 23.6 14.1 -12.5 8 13.5 NW 33 50 18 27 1017.4 1016.1 0.0
16/02:17pm 22.9 12.5 -14.7 7 13.4 NW 37 56 20 30 1017.1 1015.8 0.0
16/02:09pm 23.5 13.5 -14.2 7 13.6 WNW 35 56 19 30 1016.9 1015.6 0.0
16/02:00pm 23.3 12.9 -14.4 7 13.5 NW 37 46 20 25 1017.3 1015.9 0.0
16/01:30pm 22.9 12.2 -13.1 8 13.2 WNW 39 54 21 29 1017.8 1016.5 0.0
16/01:00pm 23.4 12.4 -12.7 8 13.4 NW 41 50 22 27 1018.0 1016.7 0.0
16/12:30pm 22.6 11.1 -14.9 7 13.2 NW 43 57 23 31 1018.2 1016.9 0.0
16/12:15pm 22.2 11.5 -13.6 8 12.9 NW 39 61 21 33 1018.1 1016.8 0.0
16/12:00pm 23.5 12.9 -11.2 9 13.2 NW 39 48 21 26 1018.8 1017.5 0.0
16/11:30am 21.3 11.0 -12.8 9 12.3 NW 37 48 20 26 1019.1 1017.8 0.0
16/11:00am 21.9 12.0 -12.4 9 12.6 NW 35 46 19 25 1019.6 1018.3 0.0
16/10:30am 21.2 12.0 -11.6 10 12.1 NW 32 39 17 21 1020.3 1019.0 0.0
16/10:00am 20.0 10.7 -12.5 10 11.6 NW 32 43 17 23 1020.8 1019.5 0.0
16/09:30am 20.0 11.9 -11.3 11 11.5 NW 26 33 14 18 1021.0 1019.8 0.0
16/09:00am 18.8 11.5 -11.2 12 10.8 WNW 22 28 12 15 1021.3 1020.1 0.0
16/08:30am 17.8 10.1 -11.9 12 10.5 NW 24 30 13 16 1021.5 1020.3 0.0
16/08:00am 17.9 10.6 -10.9 13 10.4 NW 22 30 12 16 1021.2 1020.0 0.0
16/07:30am 16.6 9.9 -10.1 15 9.6 WNW 19 20 10 11 1021.1 1019.9 0.0
16/07:00am 15.8 9.1 -10.7 15 9.3 WNW 19 20 10 11 1020.9 1019.7 0.0
16/06:30am 15.4 9.0 -11.1 15 9.2 WNW 17 19 9 10 1020.7 1019.4 0.0
16/06:00am 15.4 9.4 -11.1 15 9.2 WNW 15 17 8 9 1020.9 1019.7 0.0

Other formats

Comma delimited format used in spreadsheet applications
http://www.bom.gov.au/fwo/IDN60801/IDN60801.95747.axf

JavaScript Object Notation format (JSON) in row-major order
http://www.bom.gov.au/fwo/IDN60801/IDN60801.95747.json

Data quality

Most of these data are generated automatically and are frequently updated. Quality checks on data are not normally performed. It is possible for incorrect values to appear. Refer to information at About Latest Weather Observations and please check the disclaimer before using these data.